Caribe Alliance — WDC9383 — position and weather

sailwx.info

Track history (hours):
 
Tides and Currents Weather Stations Pressure Air Temp Water Temp Dewpoint Dewpoint Depression Visibility Wind Speed Wind Dir Waves Ship Positions

Caribe Alliance

Owner: Gulf Caribe Maritime, Redondo Beach, CA. More information available from US FCC via Universal Licensing System and Coast Guard Vessel Documentation Center.

Last reported at 2015-Jul-06 11:25 UTC. Time now 2015-Jul-07 19:46 UTC.
Position N 33°51' W 118°24'.

Length 19 m; draft 3.3 m.

Type: Port tender. MMSI: 367101530.

Date/timePositionNaut miles runAvg speedWind from/ knotsBaromVisibWave heightAir tempDewpointWater temp
2015-Jul-06 11:25N 33°51' W 118°24'5 5.6
2015-Jul-06 10:30N 33°55' W 118°27'0 0.0
2015-Jul-05 17:24N 33°55' W 118°27'0 0.4
2015-Jul-05 16:32N 33°55' W 118°27'0 0.1
2015-Jul-05 15:24N 33°55' W 118°27'0 0.1
2015-Jul-05 14:16N 33°55' W 118°27'0 0.4
2015-Jul-05 13:32N 33°54' W 118°27'5 0.1
2015-Jul-03 13:07N 33°51' W 118°24'5 8.4
2015-Jul-03 12:33N 33°54' W 118°27'0 0.2
2015-Jul-03 11:33N 33°54' W 118°27'0 0.3
2015-Jul-03 10:33N 33°54' W 118°27'0 0.0
2015-Jul-03 09:32N 33°54' W 118°27'0 0.0
2015-Jul-03 08:29N 33°54' W 118°27'0 0.0
2015-Jul-03 07:32N 33°54' W 118°27'0 0.0
2015-Jul-03 06:17N 33°54' W 118°27'0 0.0
2015-Jul-03 04:26N 33°54' W 118°27'0 0.0
2015-Jul-03 03:32N 33°54' W 118°27'0 0.0
2015-Jul-03 02:34N 33°54' W 118°27'0 0.0
2015-Jul-03 01:33N 33°54' W 118°27'0 0.0
2015-Jul-03 00:31N 33°54' W 118°27'0 0.0
2015-Jul-02 23:33N 33°54' W 118°27'0 0.0
2015-Jul-02 22:34N 33°54' W 118°27'0 0.3
2015-Jul-02 21:33N 33°54' W 118°27'0 0.3
2015-Jul-02 20:33N 33°54' W 118°27'0 0.3
2015-Jul-02 19:33N 33°54' W 118°27'0 0.0
2015-Jul-02 18:33N 33°54' W 118°27'2 1.5
2015-Jul-02 17:33N 33°53' W 118°26'1 0.1
2015-Jul-02 04:33N 33°54' W 118°26'1 1.2
2015-Jul-02 03:33N 33°55' W 118°27'0 0.1
2015-Jul-02 02:30N 33°55' W 118°27'0 0.3
2015-Jul-02 01:30N 33°55' W 118°27'0 0.0
2015-Jul-02 00:30N 33°55' W 118°27'0 0.0
2015-Jul-01 23:33N 33°55' W 118°27'0 0.0
2015-Jul-01 22:16N 33°55' W 118°27'0 0.0
2015-Jul-01 21:33N 33°55' W 118°27'0 0.0
2015-Jul-01 20:32N 33°55' W 118°27'0 0.0
2015-Jul-01 19:07N 33°55' W 118°27'0 0.0
2015-Jul-01 18:27N 33°55' W 118°27'0 0.0
2015-Jul-01 14:18N 33°55' W 118°27'0 0.0
2015-Jul-01 13:32N 33°55' W 118°27'0 0.0
2015-Jul-01 07:33N 33°55' W 118°27'0 0.0
2015-Jul-01 06:21N 33°55' W 118°27'0 0.0
2015-Jul-01 04:23N 33°55' W 118°27'0 0.0
2015-Jul-01 03:22N 33°55' W 118°27'0 0.0
2015-Jul-01 02:30N 33°55' W 118°27'0 0.1
2015-Jul-01 00:18N 33°55' W 118°27'0 0.1
2015-Jun-30 21:29N 33°55' W 118°27'0 0.0
2015-Jun-30 20:20N 33°55' W 118°27'0 0.0
2015-Jun-30 19:12N 33°55' W 118°27'0 0.0
2015-Jun-30 17:25N 33°55' W 118°27'0 0.5
2015-Jun-30 16:33N 33°55' W 118°27'0 0.2
2015-Jun-30 15:34N 33°55' W 118°27'0 0.3
2015-Jun-30 14:29N 33°55' W 118°27'1 1.0
2015-Jun-30 13:33N 33°54' W 118°27'4 0.1
2015-Jun-29 03:28N 33°51' W 118°24'  
Track history (hours):
 
Tides and Currents Weather Stations Pressure Air Temp Water Temp Dewpoint Dewpoint Depression Visibility Wind Speed Wind Dir Waves Ship Positions

Caribe Alliance

Owner: Gulf Caribe Maritime, Redondo Beach, CA. More information available from US FCC via Universal Licensing System and Coast Guard Vessel Documentation Center.

Last reported at 2015-Jul-06 11:25 UTC. Time now 2015-Jul-07 19:46 UTC.
Position N 33°51' W 118°24'.

Length 19 m; draft 3.3 m.

Type: Port tender. MMSI: 367101530.

Date/timePositionNaut miles runAvg speedWind from/ knotsBaromVisibWave heightAir tempDewpointWater temp
2015-Jul-06 11:25N 33°51' W 118°24'5 5.6
2015-Jul-06 10:30N 33°55' W 118°27'0 0.0
2015-Jul-05 17:24N 33°55' W 118°27'0 0.4
2015-Jul-05 16:32N 33°55' W 118°27'0 0.1
2015-Jul-05 15:24N 33°55' W 118°27'0 0.1
2015-Jul-05 14:16N 33°55' W 118°27'0 0.4
2015-Jul-05 13:32N 33°54' W 118°27'5 0.1
2015-Jul-03 13:07N 33°51' W 118°24'5 8.4
2015-Jul-03 12:33N 33°54' W 118°27'0 0.2
2015-Jul-03 11:33N 33°54' W 118°27'0 0.3
2015-Jul-03 10:33N 33°54' W 118°27'0 0.0
2015-Jul-03 09:32N 33°54' W 118°27'0 0.0
2015-Jul-03 08:29N 33°54' W 118°27'0 0.0
2015-Jul-03 07:32N 33°54' W 118°27'0 0.0
2015-Jul-03 06:17N 33°54' W 118°27'0 0.0
2015-Jul-03 04:26N 33°54' W 118°27'0 0.0
2015-Jul-03 03:32N 33°54' W 118°27'0 0.0
2015-Jul-03 02:34N 33°54' W 118°27'0 0.0
2015-Jul-03 01:33N 33°54' W 118°27'0 0.0
2015-Jul-03 00:31N 33°54' W 118°27'0 0.0
2015-Jul-02 23:33N 33°54' W 118°27'0 0.0
2015-Jul-02 22:34N 33°54' W 118°27'0 0.3
2015-Jul-02 21:33N 33°54' W 118°27'0 0.3
2015-Jul-02 20:33N 33°54' W 118°27'0 0.3
2015-Jul-02 19:33N 33°54' W 118°27'0 0.0
2015-Jul-02 18:33N 33°54' W 118°27'2 1.5
2015-Jul-02 17:33N 33°53' W 118°26'1 0.1
2015-Jul-02 04:33N 33°54' W 118°26'1 1.2
2015-Jul-02 03:33N 33°55' W 118°27'0 0.1
2015-Jul-02 02:30N 33°55' W 118°27'0 0.3
2015-Jul-02 01:30N 33°55' W 118°27'0 0.0
2015-Jul-02 00:30N 33°55' W 118°27'0 0.0
2015-Jul-01 23:33N 33°55' W 118°27'0 0.0
2015-Jul-01 22:16N 33°55' W 118°27'0 0.0
2015-Jul-01 21:33N 33°55' W 118°27'0 0.0
2015-Jul-01 20:32N 33°55' W 118°27'0 0.0
2015-Jul-01 19:07N 33°55' W 118°27'0 0.0
2015-Jul-01 18:27N 33°55' W 118°27'0 0.0
2015-Jul-01 14:18N 33°55' W 118°27'0 0.0
2015-Jul-01 13:32N 33°55' W 118°27'0 0.0
2015-Jul-01 07:33N 33°55' W 118°27'0 0.0
2015-Jul-01 06:21N 33°55' W 118°27'0 0.0
2015-Jul-01 04:23N 33°55' W 118°27'0 0.0
2015-Jul-01 03:22N 33°55' W 118°27'0 0.0
2015-Jul-01 02:30N 33°55' W 118°27'0 0.1
2015-Jul-01 00:18N 33°55' W 118°27'0 0.1
2015-Jun-30 21:29N 33°55' W 118°27'0 0.0
2015-Jun-30 20:20N 33°55' W 118°27'0 0.0
2015-Jun-30 19:12N 33°55' W 118°27'0 0.0
2015-Jun-30 17:25N 33°55' W 118°27'0 0.5
2015-Jun-30 16:33N 33°55' W 118°27'0 0.2
2015-Jun-30 15:34N 33°55' W 118°27'0 0.3
2015-Jun-30 14:29N 33°55' W 118°27'1 1.0
2015-Jun-30 13:33N 33°54' W 118°27'4 0.1
2015-Jun-29 03:28N 33°51' W 118°24'  

Dump ship's entire track history